createdAt,value
2023-02-05T00:00:31.185Z,86.84
2023-02-05T00:02:59.468Z,88.76
2023-02-05T00:05:27.682Z,89.12
2023-02-05T00:07:55.887Z,87.78
2023-02-05T00:10:25.474Z,87.44
2023-02-05T00:12:53.672Z,89.00
2023-02-05T00:15:21.898Z,89.64
2023-02-05T00:17:50.122Z,88.39
2023-02-05T00:20:18.926Z,87.55
2023-02-05T00:22:47.165Z,87.50
2023-02-05T00:25:15.406Z,87.41
2023-02-05T00:27:44.999Z,87.17
2023-02-05T00:30:14.326Z,87.13
2023-02-05T00:32:42.591Z,88.05
2023-02-05T00:35:10.810Z,87.22
2023-02-05T00:37:39.448Z,87.19
2023-02-05T00:40:08.742Z,87.46
2023-02-05T00:42:37.003Z,87.16
2023-02-05T00:45:10.791Z,87.12
2023-02-05T00:47:39.387Z,87.27
2023-02-05T00:50:08.518Z,87.82
2023-02-05T00:52:37.044Z,88.81
2023-02-05T00:55:06.257Z,86.90
2023-02-05T00:57:34.493Z,86.98
2023-02-05T01:00:02.755Z,87.42
2023-02-05T01:02:56.456Z,87.53
2023-02-05T01:05:49.787Z,88.66
2023-02-05T01:08:17.946Z,87.87
2023-02-05T01:10:48.018Z,88.55
2023-02-05T01:13:18.181Z,87.78
2023-02-05T01:15:47.143Z,88.63
2023-02-05T01:18:16.738Z,88.55
2023-02-05T01:20:45.275Z,88.41
2023-02-05T01:23:13.503Z,86.82
2023-02-05T01:25:41.652Z,86.92
2023-02-05T01:28:10.201Z,87.45
2023-02-05T01:30:38.504Z,88.17
2023-02-05T01:33:06.825Z,86.53
2023-02-05T01:35:36.648Z,87.33
2023-02-05T01:38:04.905Z,87.17
2023-02-05T01:40:34.710Z,87.55
2023-02-05T01:43:02.884Z,86.67
2023-02-05T01:45:51.069Z,88.21
2023-02-05T01:48:24.003Z,87.33
2023-02-05T01:50:57.622Z,88.48
2023-02-05T01:53:29.853Z,88.38
2023-02-05T01:56:01.554Z,88.29
2023-02-05T01:58:34.809Z,89.35
2023-02-05T02:01:03.384Z,88.55
2023-02-05T02:03:33.104Z,88.34
2023-02-05T02:06:04.804Z,88.30
2023-02-05T02:08:33.770Z,87.91
2023-02-05T02:11:06.356Z,87.58
2023-02-05T02:13:36.701Z,86.83
2023-02-05T02:16:08.199Z,87.12
2023-02-05T02:18:38.757Z,86.06
2023-02-05T02:22:08.756Z,86.57
2023-02-05T02:25:28.115Z,87.09
2023-02-05T02:28:00.621Z,87.22
2023-02-05T02:30:36.524Z,87.48
2023-02-05T02:33:15.221Z,88.17
2023-02-05T02:35:53.705Z,87.19
2023-02-05T02:38:29.215Z,87.37
2023-02-05T02:41:05.934Z,87.95
2023-02-05T02:43:43.286Z,88.48
2023-02-05T02:46:22.813Z,87.50
2023-02-05T02:48:53.960Z,87.95
2023-02-05T02:51:24.698Z,88.56
2023-02-05T02:54:00.489Z,89.42
2023-02-05T02:56:55.403Z,88.69
2023-02-05T02:59:27.355Z,90.12
2023-02-05T03:02:00.193Z,90.53
2023-02-05T03:04:37.839Z,90.42
2023-02-05T03:07:15.516Z,89.78
2023-02-05T03:09:54.028Z,90.50
2023-02-05T03:12:30.474Z,88.72
2023-02-05T03:15:00.673Z,89.13
2023-02-05T03:17:30.524Z,87.66
2023-02-05T03:20:05.424Z,87.43
2023-02-05T03:22:33.908Z,87.58
2023-02-05T03:25:03.244Z,88.49
2023-02-05T03:27:34.078Z,88.90
2023-02-05T03:30:06.703Z,89.04
2023-02-05T03:32:49.678Z,89.21
2023-02-05T03:35:36.157Z,88.24
2023-02-05T03:38:32.780Z,88.42
2023-02-05T03:41:14.778Z,88.15
2023-02-05T03:43:51.026Z,87.85
2023-02-05T03:46:32.510Z,86.60
2023-02-05T03:49:15.099Z,86.56
2023-02-05T03:51:52.363Z,88.42
2023-02-05T03:54:35.257Z,87.63
2023-02-05T03:57:12.084Z,86.83
2023-02-05T03:59:42.266Z,86.86
2023-02-05T04:02:13.473Z,86.67
2023-02-05T04:04:45.033Z,86.85
2023-02-05T04:07:15.026Z,86.59
2023-02-05T04:09:43.665Z,86.14
2023-02-05T04:12:12.190Z,86.46
2023-02-05T04:14:41.426Z,86.32
2023-02-05T04:17:13.441Z,87.13
2023-02-05T04:19:42.781Z,86.37
2023-02-05T04:22:12.805Z,86.31
2023-02-05T04:24:44.459Z,87.29
2023-02-05T04:27:12.686Z,85.96
2023-02-05T04:29:41.674Z,86.50
2023-02-05T04:32:10.008Z,86.81
2023-02-05T04:34:39.605Z,86.06
2023-02-05T04:37:10.698Z,86.07
2023-02-05T04:39:38.969Z,86.97
2023-02-05T04:42:07.357Z,86.63
2023-02-05T04:44:35.501Z,87.12
2023-02-05T04:47:03.671Z,86.97
2023-02-05T04:49:33.945Z,87.40
2023-02-05T04:52:03.697Z,87.01
2023-02-05T04:54:31.890Z,87.67
2023-02-05T04:57:00.037Z,86.95
2023-02-05T04:59:30.005Z,86.70
2023-02-05T05:01:58.378Z,87.75
2023-02-05T05:07:21.228Z,85.75
2023-02-05T05:09:51.011Z,86.92
2023-02-05T05:12:20.505Z,87.46
2023-02-05T05:14:48.907Z,88.56
2023-02-05T05:17:17.141Z,88.03
2023-02-05T05:19:45.390Z,88.70
2023-02-05T05:22:13.602Z,87.04
2023-02-05T05:24:43.171Z,89.17
2023-02-05T05:27:11.334Z,88.83
2023-02-05T05:29:39.919Z,90.01
2023-02-05T05:32:08.139Z,88.34
2023-02-05T05:34:36.468Z,89.55
2023-02-05T05:37:04.633Z,89.67
2023-02-05T05:39:50.602Z,90.28
2023-02-05T05:42:37.873Z,88.76
2023-02-05T05:45:09.341Z,89.29
2023-02-05T05:47:37.910Z,90.57
2023-02-05T05:50:07.265Z,90.71
2023-02-05T05:52:35.529Z,90.84
2023-02-05T05:55:03.768Z,90.87
2023-02-05T05:57:33.255Z,90.71
2023-02-05T06:00:02.637Z,91.00
2023-02-05T06:02:44.185Z,91.74
2023-02-05T06:05:12.812Z,89.67
2023-02-05T06:07:41.006Z,90.04
2023-02-05T06:10:10.462Z,89.39
2023-02-05T06:12:40.222Z,89.02
2023-02-05T06:15:09.799Z,89.70
2023-02-05T06:17:38.084Z,88.53
2023-02-05T06:20:07.427Z,91.09
2023-02-05T06:22:36.231Z,90.05
2023-02-05T06:25:05.323Z,89.39
2023-02-05T06:27:33.957Z,89.83
2023-02-05T06:30:04.237Z,90.29
2023-02-05T06:32:32.480Z,88.99
2023-02-05T06:35:00.698Z,90.03
2023-02-05T06:37:46.206Z,89.18
2023-02-05T06:40:15.959Z,88.64
2023-02-05T06:42:44.239Z,87.85
2023-02-05T06:45:13.923Z,88.81
2023-02-05T06:47:42.120Z,88.00
2023-02-05T06:50:11.110Z,86.91
2023-02-05T06:52:39.611Z,87.52
2023-02-05T06:55:08.728Z,87.53
2023-02-05T06:57:36.990Z,88.32
2023-02-05T07:00:07.545Z,88.11
2023-02-05T07:02:37.218Z,89.15
2023-02-05T07:05:05.664Z,89.23
2023-02-05T07:07:34.383Z,88.90
2023-02-05T07:10:03.098Z,90.75
2023-02-05T07:12:31.523Z,91.28
2023-02-05T07:14:59.742Z,90.64
2023-02-05T07:17:27.949Z,90.61
2023-02-05T07:19:58.734Z,91.49
2023-02-05T07:22:27.339Z,91.53
2023-02-05T07:24:55.551Z,90.68
2023-02-05T07:27:23.838Z,90.56
2023-02-05T07:29:51.981Z,90.46
2023-02-05T07:32:20.131Z,91.72
2023-02-05T07:34:48.204Z,91.97
2023-02-05T07:37:17.584Z,90.40
2023-02-05T07:39:45.738Z,91.12
2023-02-05T07:42:13.960Z,90.85
2023-02-05T07:44:50.199Z,90.75
2023-02-05T07:47:18.376Z,91.44
2023-02-05T07:49:46.874Z,91.18
2023-02-05T07:52:15.058Z,91.54
2023-02-05T07:54:44.841Z,91.71
2023-02-05T07:57:13.107Z,89.95
2023-02-05T07:59:41.396Z,90.42
2023-02-05T08:02:10.825Z,90.91
2023-02-05T08:04:39.166Z,90.55
2023-02-05T08:07:07.927Z,90.80
2023-02-05T08:09:37.106Z,90.20
2023-02-05T08:12:07.786Z,92.01
2023-02-05T08:14:36.855Z,92.49
2023-02-05T08:17:07.110Z,92.74
2023-02-05T08:19:37.401Z,92.64
2023-02-05T08:22:05.690Z,92.80
2023-02-05T08:24:33.965Z,93.41
2023-02-05T08:27:02.215Z,92.71
2023-02-05T08:29:32.177Z,92.32
2023-02-05T08:32:00.891Z,92.04
2023-02-05T08:34:29.424Z,93.45
2023-02-05T08:36:57.836Z,93.69
2023-02-05T08:39:26.916Z,92.73
2023-02-05T08:41:57.020Z,93.75
2023-02-05T08:44:25.774Z,93.05
2023-02-05T08:46:55.323Z,94.23
2023-02-05T08:49:23.731Z,93.23
2023-02-05T08:51:52.197Z,93.22
2023-02-05T08:54:20.626Z,93.15
2023-02-05T08:56:51.931Z,93.50
2023-02-05T08:59:20.890Z,94.12
2023-02-05T09:02:14.248Z,93.77
2023-02-05T09:04:44.166Z,93.94
2023-02-05T09:07:20.414Z,92.76
2023-02-05T09:09:48.970Z,93.63
2023-02-05T09:12:17.512Z,92.90
2023-02-05T09:14:45.740Z,92.88
2023-02-05T09:17:14.455Z,93.13
2023-02-05T09:19:44.051Z,93.83
2023-02-05T09:22:12.344Z,94.11
2023-02-05T09:24:40.576Z,94.44
2023-02-05T09:27:08.821Z,94.67
2023-02-05T09:29:37.252Z,95.26
2023-02-05T09:32:06.152Z,94.64
2023-02-05T09:34:34.438Z,95.32
2023-02-05T09:37:04.076Z,95.63
2023-02-05T09:40:19.906Z,95.12
2023-02-05T09:42:32.885Z,94.83
2023-02-05T09:45:19.705Z,93.95
2023-02-05T09:47:59.036Z,94.33
2023-02-05T09:50:30.245Z,94.24
2023-02-05T09:53:05.780Z,95.40
2023-02-05T09:55:41.049Z,95.77
2023-02-05T09:58:15.009Z,95.81
2023-02-05T10:00:48.572Z,95.49
2023-02-05T10:03:27.076Z,95.02
2023-02-05T10:06:15.989Z,95.05
2023-02-05T10:08:57.456Z,95.34
2023-02-05T10:11:32.909Z,96.02
2023-02-05T10:14:13.594Z,95.79
2023-02-05T10:17:02.426Z,96.22
2023-02-05T10:19:53.132Z,94.50
2023-02-05T10:22:28.264Z,93.24
2023-02-05T10:25:19.801Z,92.17
2023-02-05T10:27:58.086Z,92.74
2023-02-05T10:30:32.282Z,92.53
2023-02-05T10:33:01.982Z,92.76
2023-02-05T10:35:44.318Z,92.16
2023-02-05T10:38:18.556Z,92.67
2023-02-05T10:40:48.179Z,92.22
2023-02-05T10:43:26.498Z,92.19
2023-02-05T10:45:56.526Z,92.28
2023-02-05T10:48:40.733Z,92.63
2023-02-05T10:51:14.075Z,92.09
2023-02-05T10:53:42.514Z,92.49
2023-02-05T10:56:18.764Z,93.26
2023-02-05T10:58:53.679Z,94.06
2023-02-05T11:01:29.760Z,94.70
2023-02-05T11:04:16.442Z,94.77
2023-02-05T11:06:48.731Z,95.48
2023-02-05T11:09:33.375Z,95.45
2023-02-05T11:12:17.613Z,96.47
2023-02-05T11:14:49.330Z,96.29
2023-02-05T11:17:24.509Z,96.21
2023-02-05T11:19:57.498Z,96.62
2023-02-05T11:22:30.162Z,96.57
2023-02-05T11:25:11.625Z,96.97
2023-02-05T11:27:41.245Z,97.90
2023-02-05T11:30:50.444Z,97.97
2023-02-05T11:33:27.934Z,97.97
2023-02-05T11:36:00.371Z,97.22
2023-02-05T11:38:37.453Z,97.67
2023-02-05T11:41:09.173Z,98.00
2023-02-05T11:43:46.553Z,97.30
2023-02-05T11:46:19.523Z,97.35
2023-02-05T11:48:55.056Z,97.88
2023-02-05T11:51:40.963Z,98.05
2023-02-05T11:54:22.512Z,98.35
2023-02-05T11:57:08.009Z,97.68
2023-02-05T11:59:38.166Z,97.84
2023-02-05T12:02:34.864Z,98.16
2023-02-05T12:05:13.696Z,97.81
2023-02-05T12:07:48.130Z,97.25
2023-02-05T12:10:28.841Z,97.82
2023-02-05T12:13:09.985Z,97.17
2023-02-05T12:15:46.457Z,98.26
2023-02-05T12:18:27.408Z,96.92
2023-02-05T12:21:13.592Z,97.34
2023-02-05T12:24:13.954Z,97.88
2023-02-05T12:26:46.113Z,98.64
2023-02-05T12:29:37.406Z,97.97
2023-02-05T12:32:17.880Z,98.76
2023-02-05T12:35:11.792Z,98.92
2023-02-05T12:37:49.296Z,97.99
2023-02-05T12:40:40.986Z,98.06
2023-02-05T12:43:26.212Z,98.74
2023-02-05T12:46:04.283Z,98.84
2023-02-05T12:48:53.544Z,99.66
2023-02-05T12:51:38.517Z,98.52
2023-02-05T12:54:26.478Z,98.62
2023-02-05T12:57:00.372Z,98.59
2023-02-05T12:59:40.285Z,98.91
2023-02-05T13:02:23.449Z,98.28
2023-02-05T13:05:12.398Z,98.86
2023-02-05T13:07:46.247Z,98.41
2023-02-05T13:10:20.092Z,99.22
2023-02-05T13:12:53.706Z,99.11
2023-02-05T13:15:25.359Z,99.21
2023-02-05T13:18:01.649Z,99.13
2023-02-05T13:20:55.722Z,99.65
2023-02-05T13:23:41.981Z,99.54
2023-02-05T13:26:32.385Z,98.67
2023-02-05T13:29:30.172Z,99.16
2023-02-05T13:32:14.676Z,98.41
2023-02-05T13:34:43.726Z,99.02
2023-02-05T13:37:34.577Z,98.52
2023-02-05T13:40:27.257Z,98.87
2023-02-05T13:43:26.074Z,98.70
2023-02-05T13:46:40.489Z,98.08
2023-02-05T13:49:54.159Z,97.89
2023-02-05T13:52:59.174Z,97.58
2023-02-05T13:55:52.438Z,97.36
2023-02-05T13:58:24.275Z,97.71
2023-02-05T14:01:01.429Z,98.28
2023-02-05T14:03:39.665Z,98.73
2023-02-05T14:06:21.734Z,98.87
2023-02-05T14:08:59.269Z,97.58
2023-02-05T14:11:27.489Z,98.13
2023-02-05T14:14:31.747Z,97.81
2023-02-05T14:17:01.610Z,97.78
2023-02-05T14:19:56.946Z,98.03
2023-02-05T14:22:39.053Z,97.91
2023-02-05T14:26:01.985Z,97.73
2023-02-05T14:28:49.585Z,97.44
2023-02-05T14:31:57.359Z,97.82
2023-02-05T14:34:50.177Z,97.18
2023-02-05T14:37:34.663Z,97.53
2023-02-05T14:40:32.932Z,97.18
2023-02-05T14:43:10.451Z,98.31
2023-02-05T14:45:47.725Z,98.60
2023-02-05T14:48:26.311Z,98.41
2023-02-05T14:51:06.767Z,97.75
2023-02-05T14:53:38.037Z,97.17
2023-02-05T14:56:07.068Z,97.90
2023-02-05T14:58:39.748Z,98.38
2023-02-05T15:01:45.835Z,97.98
2023-02-05T15:04:49.482Z,97.31
2023-02-05T15:07:24.002Z,98.14
2023-02-05T15:09:58.617Z,98.88
2023-02-05T15:12:56.204Z,98.78
2023-02-05T15:15:35.196Z,98.53
2023-02-05T15:18:11.626Z,99.74
2023-02-05T15:20:41.896Z,98.74
2023-02-05T15:23:23.522Z,98.88
2023-02-05T15:26:00.279Z,98.24
2023-02-05T15:28:35.161Z,99.07
2023-02-05T15:31:10.568Z,98.65
2023-02-05T15:33:49.722Z,98.47
2023-02-05T15:36:28.365Z,98.85
2023-02-05T15:39:10.554Z,99.42
2023-02-05T15:41:43.467Z,99.59
2023-02-05T15:44:24.889Z,99.33
2023-02-05T15:46:54.725Z,98.83
2023-02-05T15:49:39.104Z,98.47
2023-02-05T15:52:08.134Z,98.99
2023-02-05T15:54:38.062Z,99.21
2023-02-05T15:57:09.089Z,99.07
2023-02-05T15:59:37.396Z,99.51
2023-02-05T16:02:15.007Z,98.77
2023-02-05T16:04:44.608Z,99.50
2023-02-05T16:07:23.371Z,99.59
2023-02-05T16:09:56.111Z,99.59
2023-02-05T16:12:24.834Z,100.00
2023-02-05T16:15:05.103Z,100.00
2023-02-05T16:17:39.544Z,100.00
2023-02-05T16:20:22.168Z,99.06
2023-02-05T16:22:55.334Z,99.56
2023-02-05T16:25:38.507Z,99.46
2023-02-05T16:28:14.786Z,99.52
2023-02-05T16:30:49.532Z,100.00
2023-02-05T16:33:34.690Z,99.71
2023-02-05T16:36:07.845Z,100.00
2023-02-05T16:38:37.281Z,99.92
2023-02-05T16:41:23.107Z,99.40
2023-02-05T16:43:53.775Z,100.00
2023-02-05T16:46:30.583Z,99.95
2023-02-05T16:49:01.152Z,100.00
2023-02-05T16:51:38.463Z,99.44
2023-02-05T16:54:37.967Z,100.00
2023-02-05T16:57:11.461Z,99.66
2023-02-05T16:59:51.384Z,99.87
2023-02-05T17:02:29.348Z,100.00
2023-02-05T17:05:22.585Z,100.00
2023-02-05T17:07:56.897Z,99.63
2023-02-05T17:10:25.828Z,99.01
2023-02-05T17:13:01.051Z,99.34
2023-02-05T17:15:40.506Z,99.50
2023-02-05T17:18:22.815Z,99.38
2023-02-05T17:20:51.372Z,99.12
2023-02-05T17:23:20.851Z,99.40
2023-02-05T17:25:55.603Z,98.59
2023-02-05T17:28:27.471Z,99.35
2023-02-05T17:30:58.739Z,98.70
2023-02-05T17:33:29.493Z,99.13
2023-02-05T17:35:57.728Z,99.76
2023-02-05T17:38:27.240Z,99.71
2023-02-05T17:41:15.450Z,99.51
2023-02-05T17:43:43.658Z,99.46
2023-02-05T17:46:14.831Z,99.84
2023-02-05T17:48:44.682Z,99.89
2023-02-05T17:51:21.809Z,99.17
2023-02-05T17:53:52.399Z,99.22
2023-02-05T17:56:21.985Z,99.49
2023-02-05T17:58:52.111Z,100.00
2023-02-05T18:01:21.168Z,99.81
2023-02-05T18:03:49.487Z,99.48
2023-02-05T18:06:20.192Z,99.46
2023-02-05T18:08:48.384Z,99.44
2023-02-05T18:11:17.890Z,99.70
2023-02-05T18:13:46.096Z,100.00
2023-02-05T18:16:14.358Z,100.00
2023-02-05T18:18:43.057Z,98.25
2023-02-05T18:21:11.270Z,97.42
2023-02-05T18:23:39.520Z,97.85
2023-02-05T18:26:11.122Z,99.08
2023-02-05T18:28:41.104Z,99.63
2023-02-05T18:31:10.500Z,98.85
2023-02-05T18:33:39.095Z,98.65
2023-02-05T18:36:11.020Z,99.14
2023-02-05T18:38:40.165Z,99.86
2023-02-05T18:41:10.394Z,100.00
2023-02-05T18:43:40.630Z,100.00
2023-02-05T18:46:11.605Z,100.00
2023-02-05T18:48:41.043Z,100.00
2023-02-05T18:51:11.648Z,100.00
2023-02-05T18:53:43.207Z,100.00
2023-02-05T18:56:16.540Z,99.68
2023-02-05T18:58:52.256Z,99.14
2023-02-05T19:01:29.178Z,99.32
2023-02-05T19:04:10.096Z,99.40
2023-02-05T19:06:38.468Z,99.74
2023-02-05T19:09:06.666Z,100.00
2023-02-05T19:11:40.815Z,99.84
2023-02-05T19:14:14.409Z,99.68
2023-02-05T19:16:43.439Z,99.80
2023-02-05T19:19:14.271Z,98.91
2023-02-05T19:21:44.847Z,100.00
2023-02-05T19:24:14.794Z,100.00
2023-02-05T19:26:44.701Z,100.00
2023-02-05T19:29:17.491Z,99.98
2023-02-05T19:31:46.661Z,99.85
2023-02-05T19:34:15.150Z,100.00
2023-02-05T19:36:44.701Z,100.00
2023-02-05T19:39:14.352Z,100.00
2023-02-05T19:41:45.225Z,100.00
2023-02-05T19:44:15.088Z,100.00
2023-02-05T19:46:45.209Z,100.00
2023-02-05T19:49:15.882Z,100.00
2023-02-05T19:51:46.728Z,99.17
2023-02-05T19:54:15.946Z,98.81
2023-02-05T19:56:45.186Z,99.22
2023-02-05T19:59:16.691Z,99.28
2023-02-05T20:01:45.596Z,99.51
2023-02-05T20:04:17.524Z,99.74
2023-02-05T20:06:47.226Z,99.48
2023-02-05T20:09:18.313Z,98.72
2023-02-05T20:11:48.965Z,99.34
2023-02-05T20:14:18.766Z,99.09
2023-02-05T20:16:48.190Z,98.92
2023-02-05T20:19:18.144Z,100.00
2023-02-05T20:21:47.713Z,99.81
2023-02-05T20:24:17.352Z,100.00
2023-02-05T20:26:48.274Z,98.73
2023-02-05T20:29:35.770Z,98.99
2023-02-05T20:32:04.395Z,99.45
2023-02-05T20:34:36.075Z,99.41
2023-02-05T20:37:06.912Z,99.09
2023-02-05T20:39:39.624Z,99.43
2023-02-05T20:42:07.958Z,99.84
2023-02-05T20:44:38.131Z,99.78
2023-02-05T20:47:08.181Z,100.00
2023-02-05T20:49:38.125Z,99.08
2023-02-05T20:52:06.847Z,99.35
2023-02-05T20:54:37.233Z,98.91
2023-02-05T20:57:05.547Z,98.88
2023-02-05T20:59:34.501Z,99.74
2023-02-05T21:02:28.779Z,98.81
2023-02-05T21:04:57.410Z,99.78
2023-02-05T21:07:29.576Z,100.00
2023-02-05T21:09:59.230Z,100.00
2023-02-05T21:12:31.148Z,100.00
2023-02-05T21:14:59.500Z,100.00
2023-02-05T21:17:29.085Z,100.00
2023-02-05T21:19:57.315Z,100.00
2023-02-05T21:22:25.602Z,100.00
2023-02-05T21:24:53.798Z,100.00
2023-02-05T21:27:24.166Z,100.00
2023-02-05T21:29:52.514Z,100.00
2023-02-05T21:32:20.642Z,100.00
2023-02-05T21:34:50.266Z,100.00
2023-02-05T21:37:18.686Z,100.00
2023-02-05T21:39:46.874Z,100.00
2023-02-05T21:42:15.138Z,100.00
2023-02-05T21:44:44.198Z,100.00
2023-02-05T21:47:12.369Z,100.00
2023-02-05T21:49:40.561Z,100.00
2023-02-05T21:52:10.186Z,100.00
2023-02-05T21:54:38.409Z,100.00
2023-02-05T21:57:08.328Z,100.00
2023-02-05T21:59:36.556Z,100.00
2023-02-05T22:02:04.765Z,100.00
2023-02-05T22:04:32.950Z,100.00
2023-02-05T22:07:01.133Z,100.00
2023-02-05T22:09:30.688Z,100.00
2023-02-05T22:12:03.603Z,99.91
2023-02-05T22:14:31.851Z,99.15
2023-02-05T22:17:00.370Z,99.81
2023-02-05T22:19:29.364Z,99.48
2023-02-05T22:21:57.575Z,98.99
2023-02-05T22:24:25.804Z,98.17
2023-02-05T22:26:55.488Z,97.29
2023-02-05T22:29:23.668Z,96.71
2023-02-05T22:31:54.093Z,96.90
2023-02-05T22:34:23.886Z,96.59
2023-02-05T22:36:52.091Z,95.90
2023-02-05T22:39:20.264Z,94.69
2023-02-05T22:41:48.480Z,94.69
2023-02-05T22:44:18.036Z,94.84
2023-02-05T22:46:46.315Z,95.08
2023-02-05T22:49:16.143Z,95.04
2023-02-05T22:51:45.117Z,95.64
2023-02-05T22:54:15.911Z,94.94
2023-02-05T22:56:44.449Z,96.15
2023-02-05T22:59:13.493Z,96.15
2023-02-05T23:01:43.080Z,96.07
2023-02-05T23:04:20.118Z,96.57
2023-02-05T23:06:48.731Z,96.81
2023-02-05T23:09:19.254Z,96.75
2023-02-05T23:11:47.600Z,96.47
2023-02-05T23:14:18.152Z,96.57
2023-02-05T23:16:49.280Z,96.74
2023-02-05T23:19:20.576Z,97.07
2023-02-05T23:21:49.766Z,96.98
2023-02-05T23:24:19.203Z,97.32
2023-02-05T23:26:50.829Z,97.09
2023-02-05T23:29:19.660Z,97.59
2023-02-05T23:31:49.448Z,97.66
2023-02-05T23:34:17.664Z,97.39
2023-02-05T23:36:46.066Z,97.43
2023-02-05T23:39:15.369Z,97.18
2023-02-05T23:41:43.551Z,97.52
2023-02-05T23:44:15.700Z,98.21
2023-02-05T23:46:45.752Z,97.97
2023-02-05T23:49:16.632Z,98.10
2023-02-05T23:51:44.981Z,98.85
2023-02-05T23:54:14.044Z,98.86
2023-02-05T23:56:42.764Z,98.75
2023-02-05T23:59:13.590Z,98.09
